sensor_id;sensor_type;location;lat;lon;timestamp;P1;durP1;ratioP1;P2;durP2;ratioP2
67841;SDS011;54642;59.126;37.876;2023-03-24T00:00:06;10.00;;;6.15;;
67841;SDS011;54642;59.126;37.876;2023-03-24T00:02:38;9.88;;;5.55;;
67841;SDS011;54642;59.126;37.876;2023-03-24T00:05:10;12.68;;;6.70;;
67841;SDS011;54642;59.126;37.876;2023-03-24T00:07:38;14.15;;;6.95;;
67841;SDS011;54642;59.126;37.876;2023-03-24T00:10:08;11.13;;;6.13;;
67841;SDS011;54642;59.126;37.876;2023-03-24T00:12:36;12.52;;;6.55;;
67841;SDS011;54642;59.126;37.876;2023-03-24T00:15:03;10.95;;;6.28;;
67841;SDS011;54642;59.126;37.876;2023-03-24T00:17:31;11.40;;;6.38;;
67841;SDS011;54642;59.126;37.876;2023-03-24T00:20:01;10.68;;;6.15;;
67841;SDS011;54642;59.126;37.876;2023-03-24T00:22:32;11.10;;;5.95;;
67841;SDS011;54642;59.126;37.876;2023-03-24T00:24:59;10.82;;;6.25;;
67841;SDS011;54642;59.126;37.876;2023-03-24T00:27:29;11.55;;;6.22;;
67841;SDS011;54642;59.126;37.876;2023-03-24T00:29:56;10.00;;;5.93;;
67841;SDS011;54642;59.126;37.876;2023-03-24T00:32:24;10.82;;;5.60;;
67841;SDS011;54642;59.126;37.876;2023-03-24T00:34:50;9.57;;;5.38;;
67841;SDS011;54642;59.126;37.876;2023-03-24T00:37:16;8.85;;;5.50;;
67841;SDS011;54642;59.126;37.876;2023-03-24T00:39:42;9.60;;;6.05;;
67841;SDS011;54642;59.126;37.876;2023-03-24T00:42:08;9.15;;;5.65;;
67841;SDS011;54642;59.126;37.876;2023-03-24T00:44:34;9.90;;;5.63;;
67841;SDS011;54642;59.126;37.876;2023-03-24T00:47:02;8.95;;;5.60;;
67841;SDS011;54642;59.126;37.876;2023-03-24T00:49:28;9.85;;;5.40;;
67841;SDS011;54642;59.126;37.876;2023-03-24T00:52:27;9.77;;;5.65;;
67841;SDS011;54642;59.126;37.876;2023-03-24T00:54:59;8.48;;;5.00;;
67841;SDS011;54642;59.126;37.876;2023-03-24T00:57:29;9.13;;;5.10;;
67841;SDS011;54642;59.126;37.876;2023-03-24T01:00:00;8.07;;;4.63;;
67841;SDS011;54642;59.126;37.876;2023-03-24T01:02:48;9.52;;;5.05;;
67841;SDS011;54642;59.126;37.876;2023-03-24T01:05:19;14.77;;;7.78;;
67841;SDS011;54642;59.126;37.876;2023-03-24T01:07:47;9.55;;;5.53;;
67841;SDS011;54642;59.126;37.876;2023-03-24T01:10:17;11.60;;;5.70;;
67841;SDS011;54642;59.126;37.876;2023-03-24T01:12:51;10.90;;;6.28;;
67841;SDS011;54642;59.126;37.876;2023-03-24T01:15:20;11.05;;;5.63;;
67841;SDS011;54642;59.126;37.876;2023-03-24T01:17:49;11.48;;;5.97;;
67841;SDS011;54642;59.126;37.876;2023-03-24T01:20:17;11.80;;;6.35;;
67841;SDS011;54642;59.126;37.876;2023-03-24T01:22:44;11.52;;;6.35;;
67841;SDS011;54642;59.126;37.876;2023-03-24T01:25:11;9.38;;;5.70;;
67841;SDS011;54642;59.126;37.876;2023-03-24T01:27:44;8.75;;;5.03;;
67841;SDS011;54642;59.126;37.876;2023-03-24T01:30:12;11.57;;;5.70;;
67841;SDS011;54642;59.126;37.876;2023-03-24T01:32:39;8.98;;;5.70;;
67841;SDS011;54642;59.126;37.876;2023-03-24T01:35:06;8.82;;;5.47;;
67841;SDS011;54642;59.126;37.876;2023-03-24T01:37:32;9.82;;;5.00;;
67841;SDS011;54642;59.126;37.876;2023-03-24T01:39:58;13.30;;;5.50;;
67841;SDS011;54642;59.126;37.876;2023-03-24T01:42:25;11.93;;;6.45;;
67841;SDS011;54642;59.126;37.876;2023-03-24T01:44:59;8.30;;;5.63;;
67841;SDS011;54642;59.126;37.876;2023-03-24T01:47:27;10.85;;;5.68;;
67841;SDS011;54642;59.126;37.876;2023-03-24T01:49:53;9.45;;;5.07;;
67841;SDS011;54642;59.126;37.876;2023-03-24T01:52:30;9.32;;;5.32;;
67841;SDS011;54642;59.126;37.876;2023-03-24T01:55:08;8.15;;;5.30;;
67841;SDS011;54642;59.126;37.876;2023-03-24T01:57:41;11.13;;;4.47;;
67841;SDS011;54642;59.126;37.876;2023-03-24T02:00:12;9.15;;;5.22;;
67841;SDS011;54642;59.126;37.876;2023-03-24T02:02:49;9.95;;;5.22;;
67841;SDS011;54642;59.126;37.876;2023-03-24T02:05:25;14.98;;;5.78;;
67841;SDS011;54642;59.126;37.876;2023-03-24T02:07:57;9.13;;;5.15;;
67841;SDS011;54642;59.126;37.876;2023-03-24T02:10:35;11.65;;;5.78;;
67841;SDS011;54642;59.126;37.876;2023-03-24T02:13:02;17.75;;;6.38;;
67841;SDS011;54642;59.126;37.876;2023-03-24T02:15:29;14.27;;;5.30;;
67841;SDS011;54642;59.126;37.876;2023-03-24T02:18:05;9.73;;;5.30;;
67841;SDS011;54642;59.126;37.876;2023-03-24T02:26:58;5.55;;;3.60;;
67841;SDS011;54642;59.126;37.876;2023-03-24T02:46:44;6.38;;;4.45;;
67841;SDS011;54642;59.126;37.876;2023-03-24T02:54:43;7.55;;;4.55;;
67841;SDS011;54642;59.126;37.876;2023-03-24T02:57:26;8.10;;;4.70;;
67841;SDS011;54642;59.126;37.876;2023-03-24T03:00:34;6.88;;;4.32;;
67841;SDS011;54642;59.126;37.876;2023-03-24T03:05:52;11.48;;;5.95;;
67841;SDS011;54642;59.126;37.876;2023-03-24T03:08:23;9.57;;;5.72;;
67841;SDS011;54642;59.126;37.876;2023-03-24T03:10:54;9.75;;;6.50;;
67841;SDS011;54642;59.126;37.876;2023-03-24T03:13:29;20.80;;;6.43;;
67841;SDS011;54642;59.126;37.876;2023-03-24T03:16:00;18.80;;;5.15;;
67841;SDS011;54642;59.126;37.876;2023-03-24T03:18:41;20.33;;;9.57;;
67841;SDS011;54642;59.126;37.876;2023-03-24T03:21:15;32.20;;;9.05;;
67841;SDS011;54642;59.126;37.876;2023-03-24T03:26:21;12.88;;;6.22;;
67841;SDS011;54642;59.126;37.876;2023-03-24T03:28:55;20.13;;;5.70;;
67841;SDS011;54642;59.126;37.876;2023-03-24T03:31:28;79.53;;;7.25;;
67841;SDS011;54642;59.126;37.876;2023-03-24T03:34:03;73.85;;;7.63;;
67841;SDS011;54642;59.126;37.876;2023-03-24T03:36:49;168.95;;;10.18;;
67841;SDS011;54642;59.126;37.876;2023-03-24T03:39:40;33.08;;;6.90;;
67841;SDS011;54642;59.126;37.876;2023-03-24T03:42:13;53.42;;;7.32;;
67841;SDS011;54642;59.126;37.876;2023-03-24T03:44:39;48.20;;;7.25;;
67841;SDS011;54642;59.126;37.876;2023-03-24T03:47:06;73.57;;;6.68;;
67841;SDS011;54642;59.126;37.876;2023-03-24T03:49:38;201.50;;;12.07;;
67841;SDS011;54642;59.126;37.876;2023-03-24T03:52:04;122.93;;;8.45;;
67841;SDS011;54642;59.126;37.876;2023-03-24T03:54:31;79.55;;;7.32;;
67841;SDS011;54642;59.126;37.876;2023-03-24T03:56:58;58.28;;;7.05;;
67841;SDS011;54642;59.126;37.876;2023-03-24T03:59:38;114.82;;;9.07;;
67841;SDS011;54642;59.126;37.876;2023-03-24T04:08:04;103.93;;;11.38;;
67841;SDS011;54642;59.126;37.876;2023-03-24T04:11:12;224.45;;;13.18;;
67841;SDS011;54642;59.126;37.876;2023-03-24T04:17:35;229.60;;;14.10;;
67841;SDS011;54642;59.126;37.876;2023-03-24T04:20:54;330.50;;;17.30;;
67841;SDS011;54642;59.126;37.876;2023-03-24T04:23:40;215.88;;;11.35;;
67841;SDS011;54642;59.126;37.876;2023-03-24T04:31:59;150.80;;;11.65;;
67841;SDS011;54642;59.126;37.876;2023-03-24T04:34:34;94.93;;;8.48;;
67841;SDS011;54642;59.126;37.876;2023-03-24T04:37:21;135.65;;;11.02;;
67841;SDS011;54642;59.126;37.876;2023-03-24T04:40:00;203.10;;;12.25;;
67841;SDS011;54642;59.126;37.876;2023-03-24T04:42:38;176.77;;;13.00;;
67841;SDS011;54642;59.126;37.876;2023-03-24T04:45:09;175.32;;;13.38;;
67841;SDS011;54642;59.126;37.876;2023-03-24T04:47:39;175.10;;;13.82;;
67841;SDS011;54642;59.126;37.876;2023-03-24T04:50:36;112.35;;;9.60;;
67841;SDS011;54642;59.126;37.876;2023-03-24T04:53:08;112.35;;;10.27;;
67841;SDS011;54642;59.126;37.876;2023-03-24T04:58:17;227.70;;;14.73;;
67841;SDS011;54642;59.126;37.876;2023-03-24T05:00:45;256.73;;;15.82;;
67841;SDS011;54642;59.126;37.876;2023-03-24T05:03:13;123.97;;;11.77;;
67841;SDS011;54642;59.126;37.876;2023-03-24T05:05:44;226.57;;;16.20;;
67841;SDS011;54642;59.126;37.876;2023-03-24T05:08:13;162.85;;;13.05;;
67841;SDS011;54642;59.126;37.876;2023-03-24T05:10:41;153.32;;;11.18;;
67841;SDS011;54642;59.126;37.876;2023-03-24T05:13:07;150.10;;;13.00;;
67841;SDS011;54642;59.126;37.876;2023-03-24T05:16:00;74.68;;;8.20;;
67841;SDS011;54642;59.126;37.876;2023-03-24T05:18:46;103.03;;;10.00;;
67841;SDS011;54642;59.126;37.876;2023-03-24T05:21:12;81.55;;;8.77;;
67841;SDS011;54642;59.126;37.876;2023-03-24T05:23:39;117.90;;;10.18;;
67841;SDS011;54642;59.126;37.876;2023-03-24T05:26:07;43.25;;;7.43;;
67841;SDS011;54642;59.126;37.876;2023-03-24T05:28:45;99.18;;;8.18;;
67841;SDS011;54642;59.126;37.876;2023-03-24T05:31:11;135.70;;;9.63;;
67841;SDS011;54642;59.126;37.876;2023-03-24T05:33:43;134.13;;;11.52;;
67841;SDS011;54642;59.126;37.876;2023-03-24T05:36:14;54.60;;;6.50;;
67841;SDS011;54642;59.126;37.876;2023-03-24T05:38:44;43.75;;;10.30;;
67841;SDS011;54642;59.126;37.876;2023-03-24T05:41:10;126.15;;;12.65;;
67841;SDS011;54642;59.126;37.876;2023-03-24T05:43:40;105.35;;;12.65;;
67841;SDS011;54642;59.126;37.876;2023-03-24T05:46:09;23.33;;;8.65;;
67841;SDS011;54642;59.126;37.876;2023-03-24T05:48:35;84.38;;;11.05;;
67841;SDS011;54642;59.126;37.876;2023-03-24T05:51:27;185.38;;;18.48;;
67841;SDS011;54642;59.126;37.876;2023-03-24T05:54:01;180.55;;;25.02;;
67841;SDS011;54642;59.126;37.876;2023-03-24T05:56:41;153.88;;;22.60;;
67841;SDS011;54642;59.126;37.876;2023-03-24T05:59:07;144.73;;;22.48;;
67841;SDS011;54642;59.126;37.876;2023-03-24T06:01:59;205.43;;;18.08;;
67841;SDS011;54642;59.126;37.876;2023-03-24T06:04:41;154.75;;;11.73;;
67841;SDS011;54642;59.126;37.876;2023-03-24T06:07:14;176.95;;;13.65;;
67841;SDS011;54642;59.126;37.876;2023-03-24T06:09:43;143.40;;;12.40;;
67841;SDS011;54642;59.126;37.876;2023-03-24T06:12:13;126.60;;;18.88;;
67841;SDS011;54642;59.126;37.876;2023-03-24T06:14:49;154.25;;;20.98;;
67841;SDS011;54642;59.126;37.876;2023-03-24T06:17:16;154.68;;;14.88;;
67841;SDS011;54642;59.126;37.876;2023-03-24T06:19:45;136.02;;;16.65;;
67841;SDS011;54642;59.126;37.876;2023-03-24T06:22:32;91.90;;;21.33;;
67841;SDS011;54642;59.126;37.876;2023-03-24T06:25:00;126.93;;;18.73;;
67841;SDS011;54642;59.126;37.876;2023-03-24T06:27:29;88.38;;;18.05;;
67841;SDS011;54642;59.126;37.876;2023-03-24T06:29:56;150.35;;;17.67;;
67841;SDS011;54642;59.126;37.876;2023-03-24T06:32:22;97.10;;;11.60;;
67841;SDS011;54642;59.126;37.876;2023-03-24T06:34:49;128.35;;;17.88;;
67841;SDS011;54642;59.126;37.876;2023-03-24T06:37:29;81.88;;;14.82;;
67841;SDS011;54642;59.126;37.876;2023-03-24T06:39:56;168.13;;;16.42;;
67841;SDS011;54642;59.126;37.876;2023-03-24T06:42:25;83.57;;;15.63;;
67841;SDS011;54642;59.126;37.876;2023-03-24T06:44:52;99.35;;;21.85;;
67841;SDS011;54642;59.126;37.876;2023-03-24T06:47:18;63.05;;;16.92;;
67841;SDS011;54642;59.126;37.876;2023-03-24T06:49:44;58.72;;;18.40;;
67841;SDS011;54642;59.126;37.876;2023-03-24T06:52:11;87.95;;;18.30;;
67841;SDS011;54642;59.126;37.876;2023-03-24T06:54:39;49.05;;;11.75;;
67841;SDS011;54642;59.126;37.876;2023-03-24T06:57:05;24.65;;;6.80;;
67841;SDS011;54642;59.126;37.876;2023-03-24T06:59:52;46.95;;;10.02;;
67841;SDS011;54642;59.126;37.876;2023-03-24T07:02:19;142.48;;;9.23;;
67841;SDS011;54642;59.126;37.876;2023-03-24T07:04:48;97.63;;;6.85;;
67841;SDS011;54642;59.126;37.876;2023-03-24T07:07:24;167.10;;;10.80;;
67841;SDS011;54642;59.126;37.876;2023-03-24T07:10:08;83.72;;;10.07;;
67841;SDS011;54642;59.126;37.876;2023-03-24T07:12:37;140.60;;;10.85;;
67841;SDS011;54642;59.126;37.876;2023-03-24T07:15:04;59.75;;;12.70;;
67841;SDS011;54642;59.126;37.876;2023-03-24T07:17:33;82.55;;;12.35;;
67841;SDS011;54642;59.126;37.876;2023-03-24T07:20:32;78.70;;;14.80;;
67841;SDS011;54642;59.126;37.876;2023-03-24T07:23:18;137.60;;;14.27;;
67841;SDS011;54642;59.126;37.876;2023-03-24T07:25:58;67.22;;;11.85;;
67841;SDS011;54642;59.126;37.876;2023-03-24T07:28:55;56.75;;;14.85;;
67841;SDS011;54642;59.126;37.876;2023-03-24T07:31:30;113.20;;;9.73;;
67841;SDS011;54642;59.126;37.876;2023-03-24T07:34:05;109.75;;;9.32;;
67841;SDS011;54642;59.126;37.876;2023-03-24T07:36:33;199.05;;;12.50;;
67841;SDS011;54642;59.126;37.876;2023-03-24T07:38:59;254.73;;;15.10;;
67841;SDS011;54642;59.126;37.876;2023-03-24T07:41:31;60.08;;;10.73;;
67841;SDS011;54642;59.126;37.876;2023-03-24T07:44:01;27.27;;;9.45;;
67841;SDS011;54642;59.126;37.876;2023-03-24T07:46:38;63.80;;;6.75;;
67841;SDS011;54642;59.126;37.876;2023-03-24T07:49:04;51.95;;;6.90;;
67841;SDS011;54642;59.126;37.876;2023-03-24T07:51:31;63.83;;;13.90;;
67841;SDS011;54642;59.126;37.876;2023-03-24T07:54:03;177.10;;;32.90;;
67841;SDS011;54642;59.126;37.876;2023-03-24T07:56:42;70.28;;;7.57;;
67841;SDS011;54642;59.126;37.876;2023-03-24T07:59:10;64.22;;;7.93;;
67841;SDS011;54642;59.126;37.876;2023-03-24T08:01:58;83.43;;;7.07;;
67841;SDS011;54642;59.126;37.876;2023-03-24T08:04:41;121.70;;;9.88;;
67841;SDS011;54642;59.126;37.876;2023-03-24T08:07:28;106.05;;;13.02;;
67841;SDS011;54642;59.126;37.876;2023-03-24T08:09:54;82.03;;;12.80;;
67841;SDS011;54642;59.126;37.876;2023-03-24T08:12:20;77.57;;;17.42;;
67841;SDS011;54642;59.126;37.876;2023-03-24T08:14:46;62.35;;;9.10;;
67841;SDS011;54642;59.126;37.876;2023-03-24T08:17:12;59.00;;;14.25;;
67841;SDS011;54642;59.126;37.876;2023-03-24T08:19:38;221.02;;;48.25;;
67841;SDS011;54642;59.126;37.876;2023-03-24T08:22:04;236.05;;;38.05;;
67841;SDS011;54642;59.126;37.876;2023-03-24T08:24:30;92.05;;;23.80;;
67841;SDS011;54642;59.126;37.876;2023-03-24T08:26:56;49.10;;;15.07;;
67841;SDS011;54642;59.126;37.876;2023-03-24T08:29:27;30.40;;;8.05;;
67841;SDS011;54642;59.126;37.876;2023-03-24T08:31:52;25.92;;;9.35;;
67841;SDS011;54642;59.126;37.876;2023-03-24T08:34:18;20.10;;;9.05;;
67841;SDS011;54642;59.126;37.876;2023-03-24T08:36:44;28.08;;;11.30;;
67841;SDS011;54642;59.126;37.876;2023-03-24T08:39:10;13.48;;;6.35;;
67841;SDS011;54642;59.126;37.876;2023-03-24T08:41:36;20.75;;;9.63;;
67841;SDS011;54642;59.126;37.876;2023-03-24T08:44:03;28.58;;;16.60;;
67841;SDS011;54642;59.126;37.876;2023-03-24T08:46:30;30.80;;;18.25;;
67841;SDS011;54642;59.126;37.876;2023-03-24T08:48:57;10.73;;;6.55;;
67841;SDS011;54642;59.126;37.876;2023-03-24T08:51:24;9.82;;;5.18;;
67841;SDS011;54642;59.126;37.876;2023-03-24T08:53:51;12.50;;;5.60;;
67841;SDS011;54642;59.126;37.876;2023-03-24T08:56:18;36.58;;;24.08;;
67841;SDS011;54642;59.126;37.876;2023-03-24T08:58:44;13.32;;;6.72;;
67841;SDS011;54642;59.126;37.876;2023-03-24T09:01:19;11.45;;;6.85;;
67841;SDS011;54642;59.126;37.876;2023-03-24T09:03:47;11.95;;;6.18;;
67841;SDS011;54642;59.126;37.876;2023-03-24T09:06:13;9.82;;;5.75;;
67841;SDS011;54642;59.126;37.876;2023-03-24T09:08:40;9.93;;;6.15;;
67841;SDS011;54642;59.126;37.876;2023-03-24T09:11:06;9.32;;;4.95;;
67841;SDS011;54642;59.126;37.876;2023-03-24T09:13:39;10.80;;;5.03;;
67841;SDS011;54642;59.126;37.876;2023-03-24T09:16:05;9.70;;;4.53;;
67841;SDS011;54642;59.126;37.876;2023-03-24T09:18:31;13.55;;;6.72;;
67841;SDS011;54642;59.126;37.876;2023-03-24T09:20:57;11.13;;;5.38;;
67841;SDS011;54642;59.126;37.876;2023-03-24T09:23:23;9.70;;;5.28;;
67841;SDS011;54642;59.126;37.876;2023-03-24T09:25:52;13.65;;;5.10;;
67841;SDS011;54642;59.126;37.876;2023-03-24T09:28:19;6.85;;;4.43;;
67841;SDS011;54642;59.126;37.876;2023-03-24T09:30:46;9.07;;;4.80;;
67841;SDS011;54642;59.126;37.876;2023-03-24T09:33:12;6.40;;;3.95;;
67841;SDS011;54642;59.126;37.876;2023-03-24T09:35:38;12.80;;;5.70;;
67841;SDS011;54642;59.126;37.876;2023-03-24T09:38:05;11.20;;;5.95;;
67841;SDS011;54642;59.126;37.876;2023-03-24T09:40:32;11.57;;;5.78;;
67841;SDS011;54642;59.126;37.876;2023-03-24T09:45:32;8.98;;;4.80;;
67841;SDS011;54642;59.126;37.876;2023-03-24T09:50:48;7.07;;;4.78;;
67841;SDS011;54642;59.126;37.876;2023-03-24T09:55:52;7.70;;;4.00;;
67841;SDS011;54642;59.126;37.876;2023-03-24T09:58:19;7.82;;;3.92;;
67841;SDS011;54642;59.126;37.876;2023-03-24T10:00:48;10.02;;;4.78;;
67841;SDS011;54642;59.126;37.876;2023-03-24T10:03:21;17.10;;;9.63;;
67841;SDS011;54642;59.126;37.876;2023-03-24T10:06:10;11.65;;;7.72;;
67841;SDS011;54642;59.126;37.876;2023-03-24T10:19:55;9.13;;;5.65;;
67841;SDS011;54642;59.126;37.876;2023-03-24T10:23:11;12.02;;;6.22;;
67841;SDS011;54642;59.126;37.876;2023-03-24T10:31:12;7.68;;;4.85;;
67841;SDS011;54642;59.126;37.876;2023-03-24T10:33:41;8.70;;;5.47;;
67841;SDS011;54642;59.126;37.876;2023-03-24T10:36:13;5.05;;;3.47;;
67841;SDS011;54642;59.126;37.876;2023-03-24T10:38:42;8.13;;;4.78;;
67841;SDS011;54642;59.126;37.876;2023-03-24T10:41:12;9.13;;;5.20;;
67841;SDS011;54642;59.126;37.876;2023-03-24T10:43:43;9.00;;;5.50;;
67841;SDS011;54642;59.126;37.876;2023-03-24T10:46:11;9.63;;;5.65;;
67841;SDS011;54642;59.126;37.876;2023-03-24T10:48:41;12.98;;;8.82;;
67841;SDS011;54642;59.126;37.876;2023-03-24T10:53:50;8.15;;;5.32;;
67841;SDS011;54642;59.126;37.876;2023-03-24T10:56:43;9.00;;;5.55;;
67841;SDS011;54642;59.126;37.876;2023-03-24T10:59:18;6.57;;;5.10;;
67841;SDS011;54642;59.126;37.876;2023-03-24T11:01:47;8.32;;;5.10;;
67841;SDS011;54642;59.126;37.876;2023-03-24T11:04:14;10.02;;;5.13;;
67841;SDS011;54642;59.126;37.876;2023-03-24T11:06:53;9.93;;;5.20;;
67841;SDS011;54642;59.126;37.876;2023-03-24T11:09:25;12.15;;;5.82;;
67841;SDS011;54642;59.126;37.876;2023-03-24T11:11:51;36.22;;;20.75;;
67841;SDS011;54642;59.126;37.876;2023-03-24T11:14:25;18.38;;;10.52;;
67841;SDS011;54642;59.126;37.876;2023-03-24T11:16:52;20.65;;;10.27;;
67841;SDS011;54642;59.126;37.876;2023-03-24T11:19:36;8.35;;;5.53;;
67841;SDS011;54642;59.126;37.876;2023-03-24T11:22:02;8.45;;;4.28;;
67841;SDS011;54642;59.126;37.876;2023-03-24T11:24:34;7.47;;;3.95;;
67841;SDS011;54642;59.126;37.876;2023-03-24T11:27:02;7.55;;;4.30;;
67841;SDS011;54642;59.126;37.876;2023-03-24T11:29:29;6.32;;;3.67;;
67841;SDS011;54642;59.126;37.876;2023-03-24T11:32:01;8.43;;;3.97;;
67841;SDS011;54642;59.126;37.876;2023-03-24T11:34:30;22.52;;;11.13;;
67841;SDS011;54642;59.126;37.876;2023-03-24T11:36:59;20.92;;;14.65;;
67841;SDS011;54642;59.126;37.876;2023-03-24T11:39:31;43.97;;;29.30;;
67841;SDS011;54642;59.126;37.876;2023-03-24T11:42:00;21.38;;;15.50;;
67841;SDS011;54642;59.126;37.876;2023-03-24T11:44:41;26.88;;;15.13;;
67841;SDS011;54642;59.126;37.876;2023-03-24T11:47:29;56.92;;;29.58;;
67841;SDS011;54642;59.126;37.876;2023-03-24T11:50:12;41.03;;;22.80;;
67841;SDS011;54642;59.126;37.876;2023-03-24T11:55:20;18.30;;;9.63;;
67841;SDS011;54642;59.126;37.876;2023-03-24T12:00:37;17.60;;;7.35;;
67841;SDS011;54642;59.126;37.876;2023-03-24T12:06:16;12.70;;;5.65;;
67841;SDS011;54642;59.126;37.876;2023-03-24T12:08:58;9.43;;;4.72;;
67841;SDS011;54642;59.126;37.876;2023-03-24T12:33:18;9.02;;;5.32;;
67841;SDS011;54642;59.126;37.876;2023-03-24T12:36:32;11.02;;;6.25;;
67841;SDS011;54642;59.126;37.876;2023-03-24T12:38:54;13.73;;;7.28;;
67841;SDS011;54642;59.126;37.876;2023-03-24T12:44:33;8.70;;;5.78;;
67841;SDS011;54642;59.126;37.876;2023-03-24T12:57:39;6.43;;;3.40;;
67841;SDS011;54642;59.126;37.876;2023-03-24T13:00:11;9.05;;;4.82;;
67841;SDS011;54642;59.126;37.876;2023-03-24T13:02:45;9.95;;;5.38;;
67841;SDS011;54642;59.126;37.876;2023-03-24T13:05:20;13.50;;;5.68;;
67841;SDS011;54642;59.126;37.876;2023-03-24T13:08:03;12.07;;;6.00;;
67841;SDS011;54642;59.126;37.876;2023-03-24T13:10:37;7.88;;;4.70;;
67841;SDS011;54642;59.126;37.876;2023-03-24T13:13:17;14.05;;;6.40;;
67841;SDS011;54642;59.126;37.876;2023-03-24T13:15:48;17.92;;;7.78;;
67841;SDS011;54642;59.126;37.876;2023-03-24T13:18:57;13.25;;;7.25;;
67841;SDS011;54642;59.126;37.876;2023-03-24T13:21:09;20.52;;;7.18;;
67841;SDS011;54642;59.126;37.876;2023-03-24T13:23:42;9.85;;;4.60;;
67841;SDS011;54642;59.126;37.876;2023-03-24T13:31:14;8.48;;;3.55;;
67841;SDS011;54642;59.126;37.876;2023-03-24T13:33:42;8.45;;;4.88;;
67841;SDS011;54642;59.126;37.876;2023-03-24T13:38:54;6.45;;;4.00;;
67841;SDS011;54642;59.126;37.876;2023-03-24T13:41:25;6.22;;;3.67;;
67841;SDS011;54642;59.126;37.876;2023-03-24T13:44:07;7.15;;;4.22;;
67841;SDS011;54642;59.126;37.876;2023-03-24T13:46:40;5.65;;;3.33;;
67841;SDS011;54642;59.126;37.876;2023-03-24T13:49:11;6.78;;;4.15;;
67841;SDS011;54642;59.126;37.876;2023-03-24T13:51:41;8.85;;;4.68;;
67841;SDS011;54642;59.126;37.876;2023-03-24T13:54:12;7.50;;;4.13;;
67841;SDS011;54642;59.126;37.876;2023-03-24T14:02:23;8.18;;;3.80;;
67841;SDS011;54642;59.126;37.876;2023-03-24T14:08:32;6.53;;;3.85;;
67841;SDS011;54642;59.126;37.876;2023-03-24T14:16:43;4.40;;;2.92;;
67841;SDS011;54642;59.126;37.876;2023-03-24T14:19:39;5.47;;;3.40;;
67841;SDS011;54642;59.126;37.876;2023-03-24T14:24:44;5.55;;;3.40;;
67841;SDS011;54642;59.126;37.876;2023-03-24T14:27:28;6.75;;;3.53;;
67841;SDS011;54642;59.126;37.876;2023-03-24T14:29:59;7.95;;;3.83;;
67841;SDS011;54642;59.126;37.876;2023-03-24T14:32:32;8.02;;;3.67;;
67841;SDS011;54642;59.126;37.876;2023-03-24T14:35:03;6.20;;;4.10;;
67841;SDS011;54642;59.126;37.876;2023-03-24T14:37:30;5.80;;;3.78;;
67841;SDS011;54642;59.126;37.876;2023-03-24T14:39:57;5.82;;;3.17;;
67841;SDS011;54642;59.126;37.876;2023-03-24T14:45:09;8.80;;;4.18;;
67841;SDS011;54642;59.126;37.876;2023-03-24T14:47:58;10.55;;;4.82;;
67841;SDS011;54642;59.126;37.876;2023-03-24T14:50:27;15.70;;;4.65;;
67841;SDS011;54642;59.126;37.876;2023-03-24T14:52:54;15.85;;;4.88;;
67841;SDS011;54642;59.126;37.876;2023-03-24T14:55:23;16.00;;;4.55;;
67841;SDS011;54642;59.126;37.876;2023-03-24T14:57:51;7.00;;;4.18;;
67841;SDS011;54642;59.126;37.876;2023-03-24T15:00:36;46.28;;;5.07;;
67841;SDS011;54642;59.126;37.876;2023-03-24T15:06:14;11.60;;;4.13;;
67841;SDS011;54642;59.126;37.876;2023-03-24T15:08:53;16.25;;;4.30;;
67841;SDS011;54642;59.126;37.876;2023-03-24T15:11:23;6.53;;;3.65;;
67841;SDS011;54642;59.126;37.876;2023-03-24T15:14:05;8.52;;;4.22;;
67841;SDS011;54642;59.126;37.876;2023-03-24T15:16:38;13.13;;;5.50;;
67841;SDS011;54642;59.126;37.876;2023-03-24T15:26:46;11.73;;;6.32;;
67841;SDS011;54642;59.126;37.876;2023-03-24T15:29:37;15.30;;;6.63;;
67841;SDS011;54642;59.126;37.876;2023-03-24T15:32:05;19.15;;;5.70;;
67841;SDS011;54642;59.126;37.876;2023-03-24T15:37:03;7.85;;;4.68;;
67841;SDS011;54642;59.126;37.876;2023-03-24T15:39:34;5.88;;;3.75;;
67841;SDS011;54642;59.126;37.876;2023-03-24T15:42:06;105.95;;;8.13;;
67841;SDS011;54642;59.126;37.876;2023-03-24T15:44:38;34.03;;;5.05;;
67841;SDS011;54642;59.126;37.876;2023-03-24T15:49:52;39.72;;;5.20;;
67841;SDS011;54642;59.126;37.876;2023-03-24T15:52:30;169.88;;;8.32;;
67841;SDS011;54642;59.126;37.876;2023-03-24T15:55:05;57.55;;;5.30;;
67841;SDS011;54642;59.126;37.876;2023-03-24T15:57:39;223.43;;;11.15;;
67841;SDS011;54642;59.126;37.876;2023-03-24T16:00:15;158.95;;;9.85;;
67841;SDS011;54642;59.126;37.876;2023-03-24T16:08:06;47.38;;;6.22;;
67841;SDS011;54642;59.126;37.876;2023-03-24T16:10:57;197.25;;;9.95;;
67841;SDS011;54642;59.126;37.876;2023-03-24T16:13:25;150.85;;;11.25;;
67841;SDS011;54642;59.126;37.876;2023-03-24T16:15:59;67.38;;;8.95;;
67841;SDS011;54642;59.126;37.876;2023-03-24T16:18:30;160.85;;;10.77;;
67841;SDS011;54642;59.126;37.876;2023-03-24T16:21:04;191.90;;;14.40;;
67841;SDS011;54642;59.126;37.876;2023-03-24T16:23:38;60.58;;;15.60;;
67841;SDS011;54642;59.126;37.876;2023-03-24T16:26:04;167.60;;;22.67;;
67841;SDS011;54642;59.126;37.876;2023-03-24T16:28:30;97.07;;;20.92;;
67841;SDS011;54642;59.126;37.876;2023-03-24T16:30:58;86.35;;;15.70;;
67841;SDS011;54642;59.126;37.876;2023-03-24T16:33:27;195.15;;;14.93;;
67841;SDS011;54642;59.126;37.876;2023-03-24T16:35:54;95.03;;;11.20;;
67841;SDS011;54642;59.126;37.876;2023-03-24T16:38:21;136.30;;;12.80;;
67841;SDS011;54642;59.126;37.876;2023-03-24T16:40:48;194.30;;;13.63;;
67841;SDS011;54642;59.126;37.876;2023-03-24T16:43:16;241.60;;;14.93;;
67841;SDS011;54642;59.126;37.876;2023-03-24T16:45:50;149.63;;;12.75;;
67841;SDS011;54642;59.126;37.876;2023-03-24T16:48:16;178.82;;;15.52;;
67841;SDS011;54642;59.126;37.876;2023-03-24T16:50:43;291.67;;;20.55;;
67841;SDS011;54642;59.126;37.876;2023-03-24T16:53:11;273.75;;;19.02;;
67841;SDS011;54642;59.126;37.876;2023-03-24T16:55:38;263.33;;;18.42;;
67841;SDS011;54642;59.126;37.876;2023-03-24T16:58:09;227.05;;;15.32;;
67841;SDS011;54642;59.126;37.876;2023-03-24T17:00:37;184.57;;;13.50;;
67841;SDS011;54642;59.126;37.876;2023-03-24T17:03:03;22.52;;;8.48;;
67841;SDS011;54642;59.126;37.876;2023-03-24T17:05:47;47.70;;;8.38;;
67841;SDS011;54642;59.126;37.876;2023-03-24T17:08:16;50.85;;;10.60;;
67841;SDS011;54642;59.126;37.876;2023-03-24T17:10:44;47.47;;;12.73;;
67841;SDS011;54642;59.126;37.876;2023-03-24T17:13:30;32.15;;;11.20;;
67841;SDS011;54642;59.126;37.876;2023-03-24T17:15:56;31.77;;;11.57;;
67841;SDS011;54642;59.126;37.876;2023-03-24T17:18:22;28.17;;;10.18;;
67841;SDS011;54642;59.126;37.876;2023-03-24T17:20:48;27.20;;;8.02;;
67841;SDS011;54642;59.126;37.876;2023-03-24T17:23:14;31.60;;;5.95;;
67841;SDS011;54642;59.126;37.876;2023-03-24T17:25:42;23.80;;;6.57;;
67841;SDS011;54642;59.126;37.876;2023-03-24T17:28:12;39.47;;;7.22;;
67841;SDS011;54642;59.126;37.876;2023-03-24T17:30:40;110.03;;;9.07;;
67841;SDS011;54642;59.126;37.876;2023-03-24T17:33:07;42.53;;;7.28;;
67841;SDS011;54642;59.126;37.876;2023-03-24T17:35:37;96.72;;;10.13;;
67841;SDS011;54642;59.126;37.876;2023-03-24T17:38:03;78.18;;;9.10;;
67841;SDS011;54642;59.126;37.876;2023-03-24T17:40:29;74.18;;;9.40;;